Terminal Aerodrome Forecast
Issued by NWS Wilmington, OH

Current Version | Previous Version | Text Only | Print | Product List | Glossary Off
Versions: 1 2 3 4 5 6 7 8 9 10 11 12 13 14 15

053
FTUS41 KILN 030523
TAFILN
TAF
KILN 030523Z 0306/0406 16016G26KT 4SM -SHRA BR VCTS OVC035CB
      WS020/19060KT
      TEMPO 0306/0308 26020G33KT 2SM +TSRA OVC025CB
     FM030900 18016G26KT 5SM BR VCSH OVC015
     FM031300 22012G22KT P6SM BKN025
     FM031600 24018G28KT P6SM BKN035=

USA.gov is the U.S. government's official web portal to all federal, state and local government web resources and services.